Latest Weather Observations for Minnipa RS

IDS60801

Issued at 10:01 am CDT Tuesday 17 October 2017 (issued every 30 minutes, with the page automatically refreshed every 10 minutes)

About weather observations | Map of weather stations | Latest weather observations for SA | Other Formats
Station Details ID: 018195 Name: MINNIPA PIRSA Lat: -32.84 Lon: 135.15 Height: 165.0 m
Data from the previous 72 hours. | See also: Recent months at Minnipa RS
Date/Time
CDT
Temp
°C
App
Temp
°C
Dew
Point
°C
Rel
Hum
%
Delta-T
°C
Wind Press
QNH
hPa
Press
MSL
hPa
Rain since
9am
mm
Dir  Spd
km/h
Gust
km/h
Spd
kts
Gust
kts
17/10:00am 28.4 19.7 5.9 24 11.9 N 41 59 22 32 1014.9 1014.6 0.0
17/09:59am 28.2 19.3 5.1 23 12.0 N 41 59 22 32 1015.0 1014.7 0.0
17/09:30am 28.2 19.8 5.7 24 11.8 N 39 54 21 29 1014.9 1014.6 0.0
17/09:21am 27.7 19.4 5.9 25 11.4 N 39 57 21 31 1014.8 1014.5 0.0
17/09:00am 27.1 18.0 6.0 26 11.1 N 43 56 23 30 1014.6 1014.3 0.0
17/08:46am 26.9 19.2 5.2 25 11.2 N 35 54 19 29 1014.6 1014.3 0.0
17/08:30am 26.7 18.9 5.1 25 11.1 NNE 35 52 19 28 1014.5 1014.2 0.0
17/08:00am 25.6 17.9 3.6 24 10.9 NNE 33 48 18 26 1014.3 1014.0 0.0
17/07:58am 25.5 17.9 4.0 25 10.8 NNE 33 46 18 25 1014.3 1014.0 0.0
17/07:30am 23.2 18.0 3.7 28 9.6 NNE 20 28 11 15 1014.3 1014.0 0.0
17/07:00am 22.2 17.0 3.3 29 9.1 NNE 20 24 11 13 1014.0 1013.7 0.0
17/06:30am 22.5 17.3 3.6 29 9.2 NNE 20 28 11 15 1014.1 1013.8 0.0
17/06:00am 22.6 17.3 3.2 28 9.4 NNE 20 24 11 13 1014.0 1013.7 0.0
17/05:30am 23.2 17.6 3.2 27 9.7 NNE 22 28 12 15 1013.8 1013.5 0.0
17/05:00am 23.8 18.2 3.2 26 10.1 NNE 22 28 12 15 1013.7 1013.4 0.0
17/04:30am 24.1 18.4 2.9 25 10.3 NNE 22 30 12 16 1013.7 1013.4 0.0
17/04:00am 24.3 18.2 3.0 25 10.4 NNE 24 32 13 17 1013.8 1013.5 0.0
17/03:30am 24.7 18.6 2.8 24 10.7 NNE 24 32 13 17 1013.8 1013.5 0.0
17/03:00am 25.2 18.8 3.2 24 10.8 NNE 26 35 14 19 1013.9 1013.6 0.0
17/02:30am 24.7 19.5 3.4 25 10.5 NNE 20 28 11 15 1014.1 1013.8 0.0
17/02:00am 24.4 19.1 3.1 25 10.4 NE 20 28 11 15 1014.4 1014.1 0.0
17/01:30am 24.4 18.7 3.1 25 10.4 NE 22 32 12 17 1014.6 1014.3 0.0
17/01:00am 24.2 18.6 3.5 26 10.2 NE 22 32 12 17 1014.8 1014.5 0.0
17/12:30am 24.1 19.1 3.4 26 10.2 NE 19 22 10 12 1014.8 1014.5 0.0
17/12:00am 23.8 18.9 4.2 28 9.7 NE 19 24 10 13 1014.9 1014.6 0.0
 
Date/Time
CDT
Temp
°C
App
Temp
°C
Dew
Point
°C
Rel
Hum
%
Delta-T
°C
Wind Press
QNH
hPa
Press
MSL
hPa
Rain since
9am
mm
Dir  Spd
km/h
Gust
km/h
Spd
kts
Gust
kts
16/11:30pm 24.7 19.8 3.9 26 10.3 NE 19 26 10 14 1014.9 1014.6 0.0
16/11:00pm 25.7 20.8 4.2 25 10.8 NE 19 24 10 13 1015.0 1014.7 0.0
16/10:30pm 26.0 21.2 4.5 25 10.9 NE 19 22 10 12 1015.0 1014.7 0.0
16/10:00pm 25.9 21.5 4.9 26 10.7 NE 17 19 9 10 1014.8 1014.5 0.0
16/09:30pm 25.5 21.3 4.0 25 10.8 NE 15 19 8 10 1014.7 1014.4 0.0
16/09:00pm 24.6 20.7 3.3 25 10.5 NE 13 15 7 8 1014.4 1014.1 0.0
16/08:30pm 28.0 23.7 3.0 20 12.5 NNE 15 19 8 10 1014.1 1013.8 0.0
16/08:00pm 29.4 24.2 2.6 18 13.4 NNE 19 26 10 14 1013.8 1013.5 0.0
16/07:30pm 30.6 25.3 1.9 16 14.3 NNE 19 28 10 15 1013.6 1013.3 0.0
16/07:00pm 31.7 26.4 1.9 15 15.0 NNE 19 28 10 15 1013.4 1013.0 0.0
16/06:30pm 32.3 26.5 2.4 15 15.2 NNE 22 33 12 18 1013.4 1013.0 0.0
16/06:00pm 32.7 26.4 1.7 14 15.6 NNE 24 30 13 16 1013.3 1012.9 0.0
16/05:30pm 33.4 27.4 1.3 13 16.1 NNE 22 33 12 18 1013.4 1013.0 0.0
16/05:00pm 33.8 27.1 1.6 13 16.3 N 26 43 14 23 1013.3 1012.9 0.0
16/04:30pm 33.6 27.1 0.3 12 16.5 N 24 39 13 21 1013.6 1013.3 0.0
16/04:00pm 33.8 27.1 1.6 13 16.3 N 26 43 14 23 1013.8 1013.5 0.0
16/03:30pm 33.3 28.1 2.2 14 15.9 N 19 33 10 18 1014.1 1013.8 0.0
16/03:00pm 33.1 26.7 1.0 13 16.0 N 24 39 13 21 1014.5 1014.2 0.0
16/02:30pm 32.4 25.7 1.5 14 15.5 N 26 41 14 22 1014.9 1014.6 0.0
16/02:00pm 31.9 26.1 2.1 15 15.0 NE 22 30 12 16 1015.3 1015.0 0.0
16/01:30pm 32.8 26.5 1.8 14 15.6 NE 24 43 13 23 1015.6 1015.3 0.0
16/01:00pm 31.9 25.5 1.1 14 15.3 NNE 24 37 13 20 1016.0 1015.7 0.0
16/12:30pm 31.7 25.5 4.5 18 14.3 NNE 26 44 14 24 1016.5 1016.2 0.0
16/12:00pm 30.5 23.5 1.9 16 14.2 NNE 28 39 15 21 1017.2 1016.8 0.0
16/11:30am 30.3 25.1 5.6 21 13.1 NNE 22 33 12 18 1017.6 1017.2 0.0
16/11:00am 29.3 23.8 6.0 23 12.4 NE 24 32 13 17 1017.9 1017.5 0.0
16/10:30am 28.3 22.5 6.4 25 11.6 NE 26 32 14 17 1018.3 1017.9 0.0
16/10:00am 27.1 22.4 6.0 26 11.1 NE 20 30 11 16 1018.5 1018.1 0.0
16/09:30am 25.2 20.1 5.9 29 10.0 ENE 22 32 12 17 1018.5 1018.1 0.0
16/09:00am 22.7 18.0 6.0 34 8.5 ENE 20 26 11 14 1018.7 1018.3 0.0
16/08:30am 20.3 15.5 5.5 38 7.3 ENE 20 26 11 14 1018.6 1018.2 0.0
16/08:00am 18.0 13.3 5.9 45 6.0 ENE 20 26 11 14 1018.5 1018.1 0.0
16/07:30am 16.5 11.4 6.1 50 5.1 ENE 22 26 12 14 1018.4 1018.0 0.0
16/07:00am 16.3 11.6 5.9 50 5.1 ENE 20 24 11 13 1018.3 1017.9 0.0
16/06:30am 16.3 11.1 5.6 49 5.2 ENE 22 24 12 13 1018.1 1017.7 0.0
16/06:00am 16.5 11.4 5.8 49 5.2 ENE 22 24 12 13 1018.0 1017.6 0.0
16/05:30am 16.6 11.5 5.9 49 5.2 ENE 22 24 12 13 1017.9 1017.5 0.0
16/05:00am 15.6 10.9 6.1 53 4.6 ENE 20 22 11 12 1017.7 1017.3 0.0
16/04:30am 16.2 11.6 6.3 52 4.9 ENE 20 22 11 12 1017.9 1017.5 0.0
16/04:00am 16.2 11.7 6.3 52 4.9 E 19 22 10 12 1018.1 1017.7 0.0
16/03:30am 15.8 11.8 6.5 54 4.6 E 17 20 9 11 1018.2 1017.8 0.0
16/03:00am 15.5 11.5 6.8 56 4.3 E 17 20 9 11 1018.3 1017.9 0.0
16/02:30am 16.0 12.0 6.7 54 4.6 E 17 20 9 11 1018.5 1018.1 0.0
16/02:00am 16.6 12.0 6.7 52 4.9 E 20 26 11 14 1018.8 1018.5 0.0
16/01:30am 17.0 11.7 6.8 51 5.1 E 24 30 13 16 1019.0 1018.7 0.0
16/01:00am 16.7 12.2 6.8 52 4.9 E 20 28 11 15 1019.3 1019.0 0.0
16/12:30am 16.9 12.0 6.7 51 5.1 E 22 28 12 15 1019.4 1019.1 0.0
16/12:00am 17.4 12.1 6.6 49 5.4 E 24 32 13 17 1019.6 1019.3 0.0
 
Date/Time
CDT
Temp
°C
App
Temp
°C
Dew
Point
°C
Rel
Hum
%
Delta-T
°C
Wind Press
QNH
hPa
Press
MSL
hPa
Rain since
9am
mm
Dir  Spd
km/h
Gust
km/h
Spd
kts
Gust
kts
15/11:30pm 17.6 12.7 6.8 49 5.4 E 22 28 12 15 1019.6 1019.3 0.0
15/11:00pm 17.7 13.2 6.9 49 5.4 ESE 20 26 11 14 1019.7 1019.4 0.0
15/10:30pm 18.2 13.8 6.4 46 5.9 ESE 19 24 10 13 1019.8 1019.5 0.0
15/10:00pm 18.9 14.8 6.4 44 6.3 SE 17 24 9 13 1019.6 1019.3 0.0
15/09:30pm 20.1 15.3 5.7 39 7.2 SE 20 26 11 14 1019.1 1018.8 0.0
15/09:00pm 21.2 16.0 5.6 36 7.8 SE 22 28 12 15 1018.5 1018.1 0.0
15/08:30pm 22.0 16.7 5.0 33 8.5 SE 22 30 12 16 1018.2 1017.8 0.0
15/08:00pm 23.4 17.1 3.9 28 9.6 SE 26 35 14 19 1017.8 1017.4 0.0
15/07:30pm 24.8 18.9 4.0 26 10.4 SE 24 30 13 16 1017.3 1016.9 0.0
15/07:00pm 26.8 20.8 3.3 22 11.7 SE 24 37 13 20 1017.0 1016.7 0.0
15/06:30pm 28.3 23.0 -0.8 15 13.6 SE 17 24 9 13 1016.9 1016.6 0.0
15/06:00pm 28.8 24.2 -1.3 14 14.0 E 13 22 7 12 1016.9 1016.6 0.0
15/05:30pm 28.9 23.1 -1.2 14 14.0 ESE 19 30 10 16 1017.0 1016.7 0.0
15/05:00pm 29.2 23.6 -0.1 15 14.0 SSE 19 32 10 17 1017.0 1016.7 0.0
15/04:30pm 29.3 24.6 0.9 16 13.8 E 15 22 8 12 1017.3 1016.9 0.0
15/04:00pm 28.6 23.8 0.3 16 13.6 SE 15 24 8 13 1017.5 1017.1 0.0
15/03:30pm 28.9 24.3 1.4 17 13.4 SE 15 26 8 14 1017.9 1017.5 0.0
15/03:00pm 28.4 24.4 2.6 19 12.8 SSE 13 28 7 15 1018.2 1017.8 0.0
15/02:30pm 28.3 23.9 2.5 19 12.8 ESE 15 28 8 15 1018.9 1018.6 0.0
15/02:00pm 28.1 23.8 3.0 20 12.6 SE 15 26 8 14 1019.1 1018.8 0.0
15/01:30pm 27.3 23.7 3.1 21 12.0 ENE 11 17 6 9 1019.4 1019.1 0.0
15/01:00pm 26.8 22.8 2.7 21 11.9 ESE 13 20 7 11 1019.6 1019.3 0.0
15/12:30pm 25.6 21.7 3.6 24 10.9 ESE 13 20 7 11 1020.1 1019.8 0.0
15/12:00pm 25.4 21.6 4.0 25 10.7 E 13 20 7 11 1020.4 1020.1 0.0
15/11:30am 25.0 21.1 3.6 25 10.6 ENE 13 19 7 10 1020.8 1020.5 0.0
15/11:00am 23.9 19.2 5.3 30 9.4 ENE 19 26 10 14 1021.1 1020.8 0.0
15/10:30am 22.5 17.9 6.3 35 8.3 ENE 20 24 11 13 1021.6 1021.3 0.0
15/10:00am 21.0 16.5 6.9 40 7.2 ENE 20 30 11 16 1021.6 1021.3 0.0
15/09:30am 19.3 15.1 8.3 49 5.7 ENE 20 28 11 15 1021.7 1021.4 0.0
15/09:00am 17.1 12.6 8.5 57 4.4 E 22 28 12 15 1021.6 1021.3 0.0
15/08:30am 15.8 11.4 8.8 63 3.6 E 22 32 12 17 1021.5 1021.2 0.0
15/08:00am 14.2 10.1 8.8 70 2.8 E 20 26 11 14 1021.4 1021.1 0.0
15/07:30am 12.8 9.0 8.9 77 2.0 E 19 24 10 13 1021.2 1020.9 0.0
15/07:00am 11.7 7.8 8.6 81 1.5 E 19 24 10 13 1020.9 1020.6 0.0
15/06:30am 11.4 7.8 8.3 81 1.5 E 17 24 9 13 1020.7 1020.4 0.0
15/06:00am 11.6 8.0 8.3 80 1.6 E 17 22 9 12 1020.6 1020.3 0.0
15/05:30am 11.6 7.9 8.1 79 1.7 E 17 24 9 13 1020.4 1020.1 0.0
15/05:00am 11.7 7.6 8.0 78 1.8 ESE 19 24 10 13 1020.3 1020.0 0.0
15/04:30am 11.7 7.4 7.8 77 1.9 ESE 20 24 11 13 1020.4 1020.1 0.0
15/04:00am 11.8 7.7 7.9 77 1.9 ESE 19 24 10 13 1020.5 1020.2 0.0
15/03:30am 11.7 7.6 8.0 78 1.8 ESE 19 24 10 13 1020.6 1020.3 0.0
15/03:00am 12.2 8.0 8.3 77 1.9 ESE 20 26 11 14 1020.8 1020.5 0.0
15/02:30am 12.8 8.6 8.3 74 2.2 E 20 28 11 15 1021.0 1020.7 0.0
15/02:00am 13.0 8.5 8.5 74 2.3 E 22 30 12 16 1021.2 1020.9 0.0
15/01:30am 13.0 8.5 8.7 75 2.2 E 22 32 12 17 1021.7 1021.4 0.0
15/01:00am 13.1 9.0 8.6 74 2.3 ESE 20 28 11 15 1021.8 1021.5 0.0
15/12:30am 13.4 9.3 8.7 73 2.4 ESE 20 28 11 15 1021.8 1021.5 0.0
15/12:00am 13.9 9.0 8.5 70 2.7 ESE 24 33 13 18 1021.9 1021.6 0.0
 
Date/Time
CDT
Temp
°C
App
Temp
°C
Dew
Point
°C
Rel
Hum
%
Delta-T
°C
Wind Press
QNH
hPa
Press
MSL
hPa
Rain since
9am
mm
Dir  Spd
km/h
Gust
km/h
Spd
kts
Gust
kts
14/11:30pm 14.3 9.4 8.5 68 2.9 ESE 24 32 13 17 1022.0 1021.7 0.0
14/11:00pm 14.5 9.6 8.5 67 3.0 SE 24 30 13 16 1022.1 1021.8 0.0
14/10:30pm 15.2 10.2 8.2 63 3.5 SE 24 32 13 17 1022.0 1021.7 0.0
14/10:00pm 16.0 11.1 7.0 55 4.5 SE 22 30 12 16 1021.8 1021.5 0.0
14/09:30pm 17.1 11.7 6.3 49 5.3 SE 24 35 13 19 1021.6 1021.3 0.0
14/09:00pm 18.1 12.7 6.3 46 5.9 SE 24 32 13 17 1021.4 1021.1 0.0
14/08:30pm 19.1 13.8 6.6 44 6.3 SE 24 33 13 18 1021.2 1020.9 0.0
14/08:00pm 20.2 14.8 6.5 41 6.9 SE 24 32 13 17 1020.9 1020.6 0.0
14/07:30pm 21.8 16.3 5.7 35 8.1 SE 24 32 13 17 1020.7 1020.4 0.0
14/07:00pm 23.4 18.3 5.8 32 9.0 SE 22 32 12 17 1020.4 1020.1 0.0
14/06:30pm 24.7 20.0 5.0 28 10.0 SE 19 28 10 15 1020.2 1019.9 0.0
14/06:00pm 25.1 20.7 4.8 27 10.3 SSE 17 28 9 15 1020.1 1019.8 0.0
14/05:30pm 25.6 20.4 3.6 24 10.9 SSE 20 28 11 15 1020.1 1019.8 0.0
14/05:00pm 25.6 20.5 4.1 25 10.8 SE 20 32 11 17 1020.0 1019.7 0.0
14/04:30pm 25.6 21.5 4.1 25 10.8 SSE 15 24 8 13 1020.3 1020.0 0.0
14/04:00pm 25.1 21.8 4.3 26 10.4 SE 11 20 6 11 1020.6 1020.3 0.0
14/03:30pm 25.5 21.5 5.1 27 10.4 SE 15 32 8 17 1020.9 1020.6 0.0
14/03:00pm 24.1 20.5 5.0 29 9.6 ESE 13 22 7 12 1021.4 1021.1 0.0
14/02:30pm 24.4 20.8 5.2 29 9.7 E 13 28 7 15 1021.8 1021.5 0.0
14/02:00pm 23.8 21.0 5.2 30 9.4 E 9 17 5 9 1022.4 1022.1 0.0
14/01:30pm 23.0 20.0 5.9 33 8.7 SE 11 19 6 10 1022.9 1022.6 0.0
14/01:00pm 22.7 20.2 6.5 35 8.3 ENE 9 19 5 10 1023.3 1023.0 0.0
14/12:30pm 21.4 18.7 7.3 40 7.3 ENE 11 20 6 11 1023.9 1023.5 0.0
14/12:00pm 20.9 18.5 8.5 45 6.5 ESE 11 19 6 10 1024.2 1023.9 0.0
14/11:30am 19.5 17.1 8.5 49 5.7 E 11 17 6 9 1024.7 1024.4 0.0
14/11:00am 18.3 15.4 9.6 57 4.6 E 15 20 8 11 1024.9 1024.6 0.0
14/10:30am 16.5 12.9 9.7 64 3.6 ESE 19 24 10 13 1024.9 1024.6 0.0

Other Formats:

Comma delimited format used in spreadsheet applications
http://www.bom.gov.au/fwo/IDS60801/IDS60801.95662.axf

JavaScript Object Notation format (JSON) in row-major order
http://www.bom.gov.au/fwo/IDS60801/IDS60801.95662.json